Time;durP1;ratioP1;P1;durP2;ratioP2;P2;SDS_P1;SDS_P2;PMS_P1;PMS_P2;Temp;Humidity;BMP_temperature;BMP_pressure;BME280_temperature;BME280_humidity;BME280_pressure;Samples;Min_cycle;Max_cycle;Signal;HPM_P1;HPM_P2
2022/03/08 00:01:28;;;;;;;;;;;0.80;99.90;;;;;;5133233;28;20291;-83
2022/03/08 00:03:53;;;;;;;;;;;0.90;99.90;;;;;;5099123;28;19920;-83
2022/03/08 00:06:19;;;;;;;;;;;0.90;99.90;;;;;;5115667;28;20299;-83
2022/03/08 00:08:44;;;;;;;;;;;0.90;99.90;;;;;;5115992;28;20380;-83
2022/03/08 00:11:10;;;;;;;;;;;0.80;99.90;;;;;;5133340;28;19953;-83
2022/03/08 00:13:35;;;;;;;;;;;0.80;99.90;;;;;;5133169;28;20009;-83
2022/03/08 00:16:01;;;;;;;;;;;0.80;99.90;;;;;;5116147;28;20017;-84
2022/03/08 00:18:26;;;;;;;;;;;0.80;99.90;;;;;;5132965;28;19968;-83
2022/03/08 00:20:52;;;;;;;;;;;0.90;99.90;;;;;;5133051;28;19926;-83
2022/03/08 00:23:17;;;;;;;;;;;0.90;99.90;;;;;;5133446;28;19981;-83
2022/03/08 00:25:43;;;;;;;;;;;0.80;99.90;;;;;;5132942;28;20432;-83
2022/03/08 00:28:08;;;;;;;;;;;0.80;99.90;;;;;;5115613;28;19958;-83
2022/03/08 00:30:34;;;;;;;;;;;0.70;99.90;;;;;;5115868;28;19989;-83
2022/03/08 00:32:59;;;;;;;;;;;0.60;99.90;;;;;;5132787;28;20399;-83
2022/03/08 00:35:25;;;;;;;;;;;0.60;99.90;;;;;;5133112;28;19968;-83
2022/03/08 00:37:52;;;;;;;;;;;0.50;99.90;;;;;;5098349;28;19920;-83
2022/03/08 00:40:19;;;;;;;;;;;0.50;99.90;;;;;;5132963;28;19919;-83
2022/03/08 00:42:45;;;;;;;;;;;0.50;99.90;;;;;;5098895;28;20368;-83
2022/03/08 00:45:11;;;;;;;;;;;0.50;99.90;;;;;;5115647;28;19926;-83
2022/03/08 00:47:39;;;;;;;;;;;0.60;99.90;;;;;;5134455;27;19926;-83
2022/03/08 00:50:05;;;;;;;;;;;0.70;99.90;;;;;;5119589;27;19919;-83
2022/03/08 00:52:30;;;;;;;;;;;0.60;99.90;;;;;;5102323;27;19924;-82
2022/03/08 00:54:56;;;;;;;;;;;0.60;99.90;;;;;;5136681;27;19930;-82
2022/03/08 00:57:21;;;;;;;;;;;0.50;99.90;;;;;;5136458;27;20364;-83
2022/03/08 00:59:46;;;;;;;;;;;0.50;99.90;;;;;;5119705;27;19923;-83
2022/03/08 01:02:12;;;;;;;;;;;0.50;99.90;;;;;;5119241;27;19962;-83
2022/03/08 01:04:37;;;;;;;;;;;0.40;99.90;;;;;;5136422;27;19920;-83
2022/03/08 01:07:05;;;;;;;;;;;0.40;99.90;;;;;;5135958;27;19926;-83
2022/03/08 01:09:30;;;;;;;;;;;0.40;99.90;;;;;;5119207;27;20014;-83
2022/03/08 01:11:56;;;;;;;;;;;0.40;99.90;;;;;;5102020;27;20015;-83
2022/03/08 01:14:22;;;;;;;;;;;0.40;99.90;;;;;;5119444;27;19923;-83
2022/03/08 01:16:48;;;;;;;;;;;0.30;99.90;;;;;;5118649;27;20056;-83
2022/03/08 01:19:13;;;;;;;;;;;0.30;99.90;;;;;;5119214;27;19919;-82
2022/03/08 01:21:39;;;;;;;;;;;0.30;99.90;;;;;;5101878;27;19919;-83
2022/03/08 01:24:05;;;;;;;;;;;0.30;99.90;;;;;;5136099;27;19926;-83
2022/03/08 01:26:31;;;;;;;;;;;0.30;99.90;;;;;;5101853;27;19965;-83
2022/03/08 01:28:57;;;;;;;;;;;0.30;99.90;;;;;;5136023;27;20303;-83
2022/03/08 01:31:24;;;;;;;;;;;0.20;99.90;;;;;;5135814;27;19923;-83
2022/03/08 01:33:49;;;;;;;;;;;0.20;99.90;;;;;;5118661;27;19942;-83
2022/03/08 01:36:15;;;;;;;;;;;0.10;99.90;;;;;;5135708;27;20002;-83
2022/03/08 01:38:41;;;;;;;;;;;0.10;99.90;;;;;;5101809;27;19919;-83
2022/03/08 01:41:06;;;;;;;;;;;0.10;99.90;;;;;;5135769;27;19919;-83
2022/03/08 01:43:32;;;;;;;;;;;0.00;99.90;;;;;;5118825;27;19967;-83
2022/03/08 01:45:57;;;;;;;;;;;0.00;99.90;;;;;;5118522;27;19941;-83
2022/03/08 01:48:23;;;;;;;;;;;0.00;99.90;;;;;;5135427;27;20257;-83
2022/03/08 01:50:48;;;;;;;;;;;0.00;99.90;;;;;;5101659;27;19920;-83
2022/03/08 01:53:14;;;;;;;;;;;0.10;99.90;;;;;;5118723;27;19927;-83
2022/03/08 01:55:39;;;;;;;;;;;0.00;99.90;;;;;;5118288;27;19920;-83
2022/03/08 01:58:05;;;;;;;;;;;0.00;99.90;;;;;;5135037;27;20442;-83
2022/03/08 02:00:31;;;;;;;;;;;-0.10;99.90;;;;;;5135401;27;19919;-83
2022/03/08 02:02:57;;;;;;;;;;;-0.10;99.90;;;;;;5118522;27;19920;-82
2022/03/08 02:05:23;;;;;;;;;;;-0.10;99.90;;;;;;5118238;27;19923;-83
2022/03/08 02:07:49;;;;;;;;;;;-0.10;99.90;;;;;;5101167;27;19919;-83
2022/03/08 02:10:16;;;;;;;;;;;-0.10;99.90;;;;;;5135252;27;19920;-82
2022/03/08 02:12:41;;;;;;;;;;;-0.10;99.90;;;;;;5117977;27;19923;-83
2022/03/08 02:15:33;;;;;;;;;;;-0.10;99.90;;;;;;5135309;27;19919;-83
2022/03/08 02:17:59;;;;;;;;;;;-0.10;99.90;;;;;;5130742;27;19919;-83
2022/03/08 02:20:25;;;;;;;;;;;-0.10;99.90;;;;;;5100858;27;19942;-83
2022/03/08 02:22:51;;;;;;;;;;;-0.10;99.90;;;;;;5135185;27;19925;-83
2022/03/08 02:25:17;;;;;;;;;;;-0.20;99.90;;;;;;5100874;27;19923;-83
2022/03/08 02:27:44;;;;;;;;;;;-0.20;99.90;;;;;;5117727;27;20288;-83
2022/03/08 02:30:10;;;;;;;;;;;0.00;99.90;;;;;;5117702;27;20288;-83
2022/03/08 02:32:36;;;;;;;;;;;-0.10;99.90;;;;;;5100478;27;19950;-83
2022/03/08 02:35:09;;;;;;;;;;;-0.10;99.90;;;;;;5117397;27;20368;-83
2022/03/08 02:37:38;;;;;;;;;;;-0.10;99.90;;;;;;5100187;27;20288;-83
2022/03/08 02:40:05;;;;;;;;;;;-0.10;99.90;;;;;;5100477;27;20010;-83
2022/03/08 02:42:30;;;;;;;;;;;0.00;99.90;;;;;;5100762;27;20431;-83
2022/03/08 02:44:56;;;;;;;;;;;-0.10;99.90;;;;;;5117343;27;19961;-83
2022/03/08 02:47:21;;;;;;;;;;;-0.20;99.90;;;;;;5134327;27;20364;-83
2022/03/08 02:49:47;;;;;;;;;;;-0.20;99.90;;;;;;5134353;27;19926;-83
2022/03/08 02:52:12;;;;;;;;;;;0.00;99.90;;;;;;5134406;27;20439;-83
2022/03/08 02:54:38;;;;;;;;;;;-0.10;99.90;;;;;;5117153;27;19924;-83
2022/03/08 02:57:03;;;;;;;;;;;-0.10;99.90;;;;;;5133855;27;19926;-83
2022/03/08 02:59:29;;;;;;;;;;;-0.10;99.90;;;;;;5134190;27;19919;-83
2022/03/08 03:01:54;;;;;;;;;;;-0.10;99.90;;;;;;5134445;27;19919;-83
2022/03/08 03:04:20;;;;;;;;;;;-0.20;99.90;;;;;;5116941;27;19968;-83
2022/03/08 03:06:45;;;;;;;;;;;-0.20;99.90;;;;;;5133975;27;19924;-82
2022/03/08 03:09:10;;;;;;;;;;;-0.20;99.90;;;;;;5133576;27;20304;-83
2022/03/08 03:11:37;;;;;;;;;;;-0.20;99.90;;;;;;5116749;27;20386;-83
2022/03/08 03:14:02;;;;;;;;;;;-0.20;99.90;;;;;;5133871;27;19925;-83
2022/03/08 03:16:28;;;;;;;;;;;-0.10;99.90;;;;;;5133531;27;19919;-83
2022/03/08 03:18:53;;;;;;;;;;;-0.10;99.90;;;;;;5116965;27;20269;-83
2022/03/08 03:21:19;;;;;;;;;;;-0.20;99.90;;;;;;5133705;27;19926;-83
2022/03/08 03:23:44;;;;;;;;;;;-0.20;99.90;;;;;;5116567;27;19926;-83
2022/03/08 03:26:10;;;;;;;;;;;-0.20;99.90;;;;;;5116092;27;20269;-83
2022/03/08 03:28:35;;;;;;;;;;;-0.10;99.90;;;;;;5133661;27;19959;-83
2022/03/08 03:31:01;;;;;;;;;;;-0.20;99.90;;;;;;5133796;27;19919;-83
2022/03/08 03:33:26;;;;;;;;;;;-0.20;99.90;;;;;;5133390;27;19919;-83
2022/03/08 03:35:52;;;;;;;;;;;-0.20;99.90;;;;;;5133714;27;19919;-83
2022/03/08 03:38:17;;;;;;;;;;;-0.30;99.90;;;;;;5133503;27;19919;-83
2022/03/08 03:40:43;;;;;;;;;;;-0.30;99.90;;;;;;5133523;27;19996;-83
2022/03/08 03:43:08;;;;;;;;;;;-0.40;99.90;;;;;;5116404;27;19920;-83
2022/03/08 03:45:34;;;;;;;;;;;-0.40;99.90;;;;;;5133700;27;19928;-82
2022/03/08 03:47:59;;;;;;;;;;;-0.40;99.90;;;;;;5115832;27;20002;-83
2022/03/08 03:50:25;;;;;;;;;;;-0.50;99.90;;;;;;5133684;27;19920;-83
2022/03/08 03:52:51;;;;;;;;;;;-0.40;99.90;;;;;;5116211;27;19923;-82
2022/03/08 03:55:16;;;;;;;;;;;-0.50;99.90;;;;;;5099256;28;19970;-83
2022/03/08 03:57:42;;;;;;;;;;;-0.50;99.90;;;;;;5132802;27;20292;-83
2022/03/08 04:00:09;;;;;;;;;;;-0.50;99.90;;;;;;5099466;28;19919;-83
2022/03/08 04:02:34;;;;;;;;;;;-0.40;99.90;;;;;;5099120;28;20284;-83
2022/03/08 04:05:00;;;;;;;;;;;-0.50;99.90;;;;;;5118704;28;19972;-83
2022/03/08 04:07:25;;;;;;;;;;;-0.60;99.90;;;;;;5078361;28;20303;-82
2022/03/08 04:09:51;;;;;;;;;;;-0.60;99.90;;;;;;5095671;28;19920;-82
2022/03/08 04:12:16;;;;;;;;;;;-0.60;99.90;;;;;;5075639;28;19978;-82
2022/03/08 04:14:42;;;;;;;;;;;-0.60;99.90;;;;;;5107408;28;19920;-82
2022/03/08 04:17:07;;;;;;;;;;;-0.60;99.90;;;;;;5066076;28;19920;-83
2022/03/08 04:19:33;;;;;;;;;;;-0.60;99.90;;;;;;5065803;28;19943;-82
2022/03/08 04:21:58;;;;;;;;;;;-0.70;99.90;;;;;;5070013;28;20004;-82
2022/03/08 04:24:24;;;;;;;;;;;-0.60;99.90;;;;;;5072242;28;20027;-82
2022/03/08 04:26:49;;;;;;;;;;;-0.60;99.90;;;;;;5089549;27;19919;-82
2022/03/08 04:29:15;;;;;;;;;;;-0.50;99.90;;;;;;5118844;27;19920;-83
2022/03/08 04:31:40;;;;;;;;;;;-0.50;99.90;;;;;;5078342;28;19931;-83
2022/03/08 04:34:06;;;;;;;;;;;-0.50;99.90;;;;;;5076250;27;19924;-82
2022/03/08 04:36:31;;;;;;;;;;;-0.50;99.90;;;;;;5079418;28;19920;-83
2022/03/08 04:38:57;;;;;;;;;;;-0.50;99.90;;;;;;5090511;28;19927;-82
2022/03/08 04:41:22;;;;;;;;;;;-0.50;99.90;;;;;;5079116;28;19920;-82
2022/03/08 04:43:48;;;;;;;;;;;-0.50;99.90;;;;;;5102724;28;20011;-82
2022/03/08 04:46:13;;;;;;;;;;;-0.50;99.90;;;;;;5081885;28;19927;-82
2022/03/08 04:48:39;;;;;;;;;;;-0.50;99.90;;;;;;5082184;28;19954;-82
2022/03/08 04:51:04;;;;;;;;;;;-0.50;99.90;;;;;;5082371;28;20015;-83
2022/03/08 04:53:30;;;;;;;;;;;-0.50;99.90;;;;;;5099088;28;19919;-82
2022/03/08 04:55:55;;;;;;;;;;;-0.50;99.90;;;;;;5082382;28;19923;-82
2022/03/08 04:58:21;;;;;;;;;;;-0.50;99.90;;;;;;5081761;28;19998;-82
2022/03/08 05:00:46;;;;;;;;;;;-0.50;99.90;;;;;;5099320;28;19926;-82
2022/03/08 05:03:12;;;;;;;;;;;-0.50;99.90;;;;;;5079455;28;19920;-83
2022/03/08 05:05:38;;;;;;;;;;;-0.50;99.90;;;;;;5081545;28;20372;-82
2022/03/08 05:08:04;;;;;;;;;;;-0.60;99.90;;;;;;5097847;28;19920;-82
2022/03/08 05:10:30;;;;;;;;;;;-0.50;99.90;;;;;;5081081;28;19966;-82
2022/03/08 05:12:55;;;;;;;;;;;-0.50;99.90;;;;;;5081360;28;19974;-82
2022/03/08 05:15:21;;;;;;;;;;;-0.60;99.90;;;;;;5081204;28;20288;-82
2022/03/08 05:17:46;;;;;;;;;;;-0.40;99.90;;;;;;5080534;28;19968;-83
2022/03/08 05:20:12;;;;;;;;;;;-0.60;99.90;;;;;;5080927;28;19923;-82
2022/03/08 05:22:37;;;;;;;;;;;-0.60;99.90;;;;;;5081148;28;19924;-82
2022/03/08 05:25:03;;;;;;;;;;;-0.60;99.90;;;;;;5097886;28;19926;-82
2022/03/08 05:27:29;;;;;;;;;;;-0.60;99.90;;;;;;5080801;28;19926;-82
2022/03/08 05:29:55;;;;;;;;;;;-0.60;99.90;;;;;;5098188;28;20281;-82
2022/03/08 05:32:20;;;;;;;;;;;-0.50;99.90;;;;;;5080773;28;19924;-82
2022/03/08 05:34:47;;;;;;;;;;;-0.50;99.90;;;;;;5081175;28;19970;-82
2022/03/08 05:37:13;;;;;;;;;;;-0.50;99.90;;;;;;5080677;28;20386;-82
2022/03/08 05:39:39;;;;;;;;;;;-0.50;99.90;;;;;;5097513;28;19943;-82
2022/03/08 05:42:04;;;;;;;;;;;-0.50;99.90;;;;;;5081151;28;19923;-82
2022/03/08 05:44:33;;;;;;;;;;;-0.50;99.90;;;;;;5080917;28;20002;-82
2022/03/08 05:46:58;;;;;;;;;;;-0.50;99.90;;;;;;5097163;28;20405;-82
2022/03/08 05:49:24;;;;;;;;;;;-0.50;99.90;;;;;;5097186;28;19927;-83
2022/03/08 05:51:49;;;;;;;;;;;-0.50;99.90;;;;;;5097318;28;19927;-82
2022/03/08 05:54:15;;;;;;;;;;;-0.50;99.90;;;;;;5080783;28;20019;-82
2022/03/08 05:56:40;;;;;;;;;;;-0.50;99.90;;;;;;5096975;28;19931;-82
2022/03/08 05:59:06;;;;;;;;;;;-0.50;99.90;;;;;;5097444;28;19923;-82
2022/03/08 06:01:31;;;;;;;;;;;-0.50;99.90;;;;;;5097713;28;20323;-82
2022/03/08 06:03:57;;;;;;;;;;;-0.50;99.90;;;;;;5097398;28;19919;-82
2022/03/08 06:06:23;;;;;;;;;;;-0.50;99.90;;;;;;5080102;28;20435;-83
2022/03/08 06:08:49;;;;;;;;;;;-0.50;99.90;;;;;;5080462;28;19976;-82
2022/03/08 06:11:15;;;;;;;;;;;-0.50;99.90;;;;;;5080193;28;19931;-82
2022/03/08 06:13:41;;;;;;;;;;;-0.60;99.90;;;;;;5080487;28;19920;-82
2022/03/08 06:16:06;;;;;;;;;;;-0.50;99.90;;;;;;5079745;28;19927;-82
2022/03/08 06:18:32;;;;;;;;;;;-0.50;99.90;;;;;;5079748;28;20006;-82
2022/03/08 06:20:57;;;;;;;;;;;-0.50;99.90;;;;;;5097105;28;19928;-82
2022/03/08 06:23:23;;;;;;;;;;;0.40;99.90;;;;;;5096738;28;20006;-82
2022/03/08 06:25:48;;;;;;;;;;;-0.50;99.90;;;;;;5079897;28;19920;-82
2022/03/08 06:28:14;;;;;;;;;;;-0.50;99.90;;;;;;5079525;28;20396;-82
2022/03/08 06:30:39;;;;;;;;;;;-0.50;99.90;;;;;;5096799;28;20019;-82
2022/03/08 06:33:04;;;;;;;;;;;0.70;99.90;;;;;;5079423;28;20296;-82
2022/03/08 06:35:30;;;;;;;;;;;-0.50;99.90;;;;;;5096347;28;19926;-82
2022/03/08 06:37:55;;;;;;;;;;;-0.30;99.90;;;;;;5079511;28;21848;-82
2022/03/08 06:40:21;;;;;;;;;;;-0.40;99.90;;;;;;5096337;28;19923;-83
2022/03/08 06:42:46;;;;;;;;;;;-0.40;99.90;;;;;;5079892;28;20426;-82
2022/03/08 06:45:12;;;;;;;;;;;-0.30;99.90;;;;;;5078650;28;19919;-82
2022/03/08 06:47:40;;;;;;;;;;;-0.30;99.90;;;;;;5078901;28;20281;-83
2022/03/08 06:50:06;;;;;;;;;;;0.00;99.90;;;;;;5063146;28;19928;-83
2022/03/08 06:52:32;;;;;;;;;;;-0.20;99.90;;;;;;5079461;28;19931;-82
2022/03/08 06:54:58;;;;;;;;;;;-0.10;99.90;;;;;;5079503;28;19920;-82
2022/03/08 06:57:24;;;;;;;;;;;0.00;99.90;;;;;;5079175;28;19927;-83
2022/03/08 06:59:50;;;;;;;;;;;0.10;99.90;;;;;;5079489;28;19919;-83
2022/03/08 07:02:15;;;;;;;;;;;0.20;99.90;;;;;;5079450;28;20007;-83
2022/03/08 07:04:40;;;;;;;;;;;0.20;99.90;;;;;;5095978;28;20360;-83
2022/03/08 07:07:06;;;;;;;;;;;0.30;99.90;;;;;;5078639;28;19924;-82
2022/03/08 07:09:31;;;;;;;;;;;0.40;99.90;;;;;;5079587;28;19955;-83
2022/03/08 07:11:57;;;;;;;;;;;0.50;99.90;;;;;;5079937;28;19973;-83
2022/03/08 07:14:22;;;;;;;;;;;0.50;99.90;;;;;;5079553;28;19919;-83
2022/03/08 07:16:48;;;;;;;;;;;0.80;99.90;;;;;;5094063;27;19919;-82
2022/03/08 07:19:14;;;;;;;;;;;0.70;99.90;;;;;;5079617;28;20011;-82
2022/03/08 07:21:40;;;;;;;;;;;0.80;99.90;;;;;;5095321;28;20262;-83
2022/03/08 07:24:06;;;;;;;;;;;0.80;99.90;;;;;;5095594;28;19927;-83
2022/03/08 07:26:32;;;;;;;;;;;0.90;99.90;;;;;;5078170;28;19920;-83
2022/03/08 07:28:57;;;;;;;;;;;0.90;99.90;;;;;;5095274;28;19977;-82
2022/03/08 07:31:23;;;;;;;;;;;1.00;99.90;;;;;;5077997;28;19935;-83
2022/03/08 07:33:48;;;;;;;;;;;1.10;99.90;;;;;;5061810;28;20318;-83
2022/03/08 07:36:13;;;;;;;;;;;1.20;99.90;;;;;;5077989;28;20360;-83
2022/03/08 07:38:39;;;;;;;;;;;1.20;99.90;;;;;;5100907;27;19919;-83
2022/03/08 07:41:05;;;;;;;;;;;1.30;99.90;;;;;;5113810;27;19920;-83
2022/03/08 07:43:31;;;;;;;;;;;1.40;99.90;;;;;;5099069;28;19920;-83
2022/03/08 07:45:56;;;;;;;;;;;1.50;99.90;;;;;;5077742;28;19924;-84
2022/03/08 07:48:22;;;;;;;;;;;1.60;99.90;;;;;;5075813;28;19967;-82
2022/03/08 07:50:47;;;;;;;;;;;1.80;99.90;;;;;;5112433;28;19920;-82
2022/03/08 07:53:13;;;;;;;;;;;1.80;99.90;;;;;;5078425;28;19924;-83
2022/03/08 07:55:38;;;;;;;;;;;1.90;99.90;;;;;;5094931;28;19924;-83
2022/03/08 07:58:04;;;;;;;;;;;2.00;99.90;;;;;;5078338;28;19920;-82
2022/03/08 08:00:31;;;;;;;;;;;2.00;99.90;;;;;;5078314;28;19924;-83
2022/03/08 08:02:57;;;;;;;;;;;2.30;99.90;;;;;;5079770;28;20368;-82
2022/03/08 08:05:23;;;;;;;;;;;2.30;99.90;;;;;;5091973;28;19927;-84
2022/03/08 08:07:48;;;;;;;;;;;2.40;99.90;;;;;;5083581;28;20004;-84
2022/03/08 08:10:14;;;;;;;;;;;2.60;99.90;;;;;;5115342;28;20292;-84
2022/03/08 08:12:40;;;;;;;;;;;2.80;99.90;;;;;;5115515;28;19931;-84
2022/03/08 08:15:06;;;;;;;;;;;2.80;99.90;;;;;;5132502;28;19920;-85
2022/03/08 08:17:32;;;;;;;;;;;2.90;99.90;;;;;;5097927;28;19927;-84
2022/03/08 08:19:57;;;;;;;;;;;3.10;99.90;;;;;;5098530;28;20280;-82
2022/03/08 08:22:23;;;;;;;;;;;3.20;99.90;;;;;;5115186;28;19919;-83
2022/03/08 08:24:48;;;;;;;;;;;3.30;99.90;;;;;;5132461;28;19920;-82
2022/03/08 08:27:14;;;;;;;;;;;3.50;99.90;;;;;;5132866;28;20422;-83
2022/03/08 08:29:40;;;;;;;;;;;3.60;99.90;;;;;;5105498;28;19959;-83
2022/03/08 08:32:05;;;;;;;;;;;3.60;99.90;;;;;;5094602;28;19931;-83
2022/03/08 08:34:31;;;;;;;;;;;3.80;99.90;;;;;;5078005;28;19927;-84
2022/03/08 08:36:56;;;;;;;;;;;3.90;99.90;;;;;;5077449;28;19928;-84
2022/03/08 08:39:22;;;;;;;;;;;4.10;99.90;;;;;;5077695;28;19926;-82
2022/03/08 08:41:47;;;;;;;;;;;4.10;99.90;;;;;;5078014;28;19920;-81
2022/03/08 08:44:13;;;;;;;;;;;4.20;99.90;;;;;;5094696;28;19964;-83
2022/03/08 08:47:12;;;;;;;;;;;4.30;99.90;;;;;;5077338;28;19919;-83
2022/03/08 08:49:37;;;;;;;;;;;4.40;99.90;;;;;;5093547;28;19926;-83
2022/03/08 08:52:03;;;;;;;;;;;4.50;99.90;;;;;;5075207;28;20377;-83
2022/03/08 08:54:29;;;;;;;;;;;4.50;99.90;;;;;;5077629;28;20300;-83
2022/03/08 08:56:54;;;;;;;;;;;4.60;99.90;;;;;;5094357;28;20019;-84
2022/03/08 08:59:20;;;;;;;;;;;4.70;99.90;;;;;;5077851;28;19919;-85
2022/03/08 09:01:45;;;;;;;;;;;4.90;99.90;;;;;;5078193;28;19920;-86
2022/03/08 09:04:11;;;;;;;;;;;4.80;99.90;;;;;;5094464;28;20057;-85
2022/03/08 09:06:37;;;;;;;;;;;4.90;99.90;;;;;;5077320;28;20340;-85
2022/03/08 09:09:02;;;;;;;;;;;5.00;99.90;;;;;;5080673;28;19920;-84
2022/03/08 09:11:28;;;;;;;;;;;5.00;99.90;;;;;;5098538;28;20413;-83
2022/03/08 09:13:56;;;;;;;;;;;5.10;99.90;;;;;;5098390;28;19920;-84
2022/03/08 09:16:22;;;;;;;;;;;5.20;99.90;;;;;;5080698;28;19923;-83
2022/03/08 09:18:47;;;;;;;;;;;5.20;99.90;;;;;;5081189;28;19927;-83
2022/03/08 09:21:13;;;;;;;;;;;5.30;99.90;;;;;;5080940;28;19920;-84
2022/03/08 09:23:38;;;;;;;;;;;5.40;99.90;;;;;;5081110;28;19920;-83
2022/03/08 09:26:04;;;;;;;;;;;5.40;99.90;;;;;;5098589;27;19920;-85
2022/03/08 09:28:30;;;;;;;;;;;5.50;99.90;;;;;;5105598;28;19955;-84
2022/03/08 09:30:56;;;;;;;;;;;5.60;99.90;;;;;;5081038;28;19974;-84
2022/03/08 09:33:21;;;;;;;;;;;5.60;99.90;;;;;;5080733;28;19931;-84
2022/03/08 09:35:47;;;;;;;;;;;5.70;99.90;;;;;;5081185;28;19973;-85
2022/03/08 09:38:13;;;;;;;;;;;5.80;99.90;;;;;;5097085;28;19924;-86
2022/03/08 09:40:39;;;;;;;;;;;5.80;99.90;;;;;;5097857;28;20308;-85
2022/03/08 09:43:05;;;;;;;;;;;5.90;99.90;;;;;;5097596;28;19921;-86
2022/03/08 09:45:30;;;;;;;;;;;5.90;99.90;;;;;;5080589;28;19930;-85
2022/03/08 09:47:56;;;;;;;;;;;6.00;99.90;;;;;;5080406;28;19931;-85
2022/03/08 09:50:21;;;;;;;;;;;6.10;99.90;;;;;;5080570;28;19924;-84
2022/03/08 09:52:47;;;;;;;;;;;6.20;99.90;;;;;;5080577;28;19931;-84
2022/03/08 09:55:14;;;;;;;;;;;6.30;99.90;;;;;;5080621;28;19982;-84
2022/03/08 09:57:40;;;;;;;;;;;6.30;99.90;;;;;;5079982;28;19920;-84
2022/03/08 10:00:06;;;;;;;;;;;6.40;99.90;;;;;;5081011;27;20300;-83
2022/03/08 10:02:42;;;;;;;;;;;6.50;99.90;;;;;;5096004;28;19927;-84
2022/03/08 10:05:08;;;;;;;;;;;6.60;99.90;;;;;;5080263;28;19927;-83
2022/03/08 10:07:33;;;;;;;;;;;6.60;99.90;;;;;;5079635;28;19923;-82
2022/03/08 10:09:59;;;;;;;;;;;6.70;99.90;;;;;;5097151;28;19919;-82
2022/03/08 10:12:25;;;;;;;;;;;6.80;99.90;;;;;;5122883;27;19924;-82
2022/03/08 10:14:51;;;;;;;;;;;6.80;99.90;;;;;;5110604;28;19970;-82
2022/03/08 10:17:35;;;;;;;;;;;6.90;99.90;;;;;;5059533;28;20038;-82
2022/03/08 10:20:01;;;;;;;;;;;7.00;99.90;;;;;;5129445;27;19926;-82
2022/03/08 10:22:31;;;;;;;;;;;7.00;99.90;;;;;;5096666;28;19927;-82
2022/03/08 10:28:10;;;;;;;;;;;7.20;99.90;;;;;;5096242;28;20401;-83
2022/03/08 10:30:42;;;;;;;;;;;7.30;99.90;;;;;;5080218;28;19953;-82
2022/03/08 10:33:08;;;;;;;;;;;7.40;99.90;;;;;;5079553;28;19928;-82
2022/03/08 10:35:38;;;;;;;;;;;7.40;99.90;;;;;;5079998;28;19927;-83
2022/03/08 10:38:06;;;;;;;;;;;7.40;99.90;;;;;;5079599;28;19989;-82
2022/03/08 10:40:35;;;;;;;;;;;7.60;99.90;;;;;;5079689;28;19919;-82
2022/03/08 10:43:05;;;;;;;;;;;8.20;99.90;;;;;;5079450;28;20346;-83
2022/03/08 10:45:32;;;;;;;;;;;7.50;99.90;;;;;;5109606;27;19920;-83
2022/03/08 10:47:57;;;;;;;;;;;7.60;99.90;;;;;;5090281;28;19920;-83
2022/03/08 10:50:28;;;;;;;;;;;7.60;99.90;;;;;;5095918;28;20698;-84
2022/03/08 10:52:55;;;;;;;;;;;7.70;99.90;;;;;;5073147;28;19923;-84
2022/03/08 10:55:28;;;;;;;;;;;7.70;99.90;;;;;;5095834;28;19965;-84
2022/03/08 10:57:55;;;;;;;;;;;7.80;99.90;;;;;;5075151;28;19927;-84
2022/03/08 11:00:23;;;;;;;;;;;8.00;99.90;;;;;;5095028;27;20289;-84
2022/03/08 11:02:56;;;;;;;;;;;8.00;99.90;;;;;;5095697;28;19919;-84
2022/03/08 11:05:26;;;;;;;;;;;8.10;99.90;;;;;;5089945;27;19926;-84
2022/03/08 11:07:53;;;;;;;;;;;8.10;99.90;;;;;;5115954;27;19974;-84
2022/03/08 11:10:19;;;;;;;;;;;8.10;99.90;;;;;;5096031;27;19920;-84
2022/03/08 11:12:44;;;;;;;;;;;8.10;99.90;;;;;;5093451;27;19930;-84
2022/03/08 11:15:11;;;;;;;;;;;8.20;99.90;;;;;;5126167;27;21002;-83
2022/03/08 11:17:37;;;;;;;;;;;8.30;99.90;;;;;;5078307;28;19924;-84
2022/03/08 11:20:04;;;;;;;;;;;8.30;99.90;;;;;;5078378;28;19923;-84
2022/03/08 11:22:29;;;;;;;;;;;8.40;99.90;;;;;;5095291;28;19920;-84
2022/03/08 11:24:55;;;;;;;;;;;8.40;99.90;;;;;;5076766;28;19919;-85
2022/03/08 11:27:21;;;;;;;;;;;8.50;99.90;;;;;;5078195;28;20387;-84
2022/03/08 11:29:48;;;;;;;;;;;8.50;99.90;;;;;;5095296;28;19923;-84
2022/03/08 11:32:17;;;;;;;;;;;8.50;99.90;;;;;;5077524;28;20300;-84
2022/03/08 11:35:09;;;;;;;;;;;8.60;99.90;;;;;;5092512;27;19955;-84
2022/03/08 11:37:37;;;;;;;;;;;8.70;99.90;;;;;;5098815;27;19920;-83
2022/03/08 11:40:09;;;;;;;;;;;8.70;99.90;;;;;;5078020;28;19919;-84
2022/03/08 11:42:37;;;;;;;;;;;8.70;99.90;;;;;;5095023;28;19919;-84
2022/03/08 11:45:11;;;;;;;;;;;8.80;99.90;;;;;;5095347;28;19924;-84
2022/03/08 11:47:38;;;;;;;;;;;8.80;99.90;;;;;;5094558;28;19924;-83
2022/03/08 11:50:04;;;;;;;;;;;8.70;99.90;;;;;;5078729;27;19931;-85
2022/03/08 11:52:31;;;;;;;;;;;8.70;99.90;;;;;;5088367;28;19963;-83
2022/03/08 11:54:58;;;;;;;;;;;8.80;99.90;;;;;;5086250;28;20007;-83
2022/03/08 11:57:50;;;;;;;;;;;8.80;99.90;;;;;;5085729;28;19924;-84
2022/03/08 12:00:18;;;;;;;;;;;8.80;99.90;;;;;;5086080;27;19924;-84
2022/03/08 12:02:44;;;;;;;;;;;8.80;99.20;;;;;;5070251;28;20346;-84
2022/03/08 12:05:30;;;;;;;;;;;8.90;99.90;;;;;;5116017;27;20019;-84
2022/03/08 12:07:55;;;;;;;;;;;9.00;99.90;;;;;;5087885;28;19927;-84
2022/03/08 12:10:27;;;;;;;;;;;9.00;99.90;;;;;;5078656;28;19920;-84
2022/03/08 12:12:54;;;;;;;;;;;9.00;98.10;;;;;;5094901;28;19988;-83
2022/03/08 12:15:20;;;;;;;;;;;9.10;99.20;;;;;;5103484;28;19940;-84
2022/03/08 12:18:04;;;;;;;;;;;9.20;99.90;;;;;;5077898;28;20006;-84
2022/03/08 12:20:30;;;;;;;;;;;9.20;99.60;;;;;;5095181;28;19919;-83
2022/03/08 12:23:09;;;;;;;;;;;9.10;96.90;;;;;;5078321;28;19927;-84
2022/03/08 12:25:34;;;;;;;;;;;9.20;96.70;;;;;;5078412;28;20289;-83
2022/03/08 12:27:59;;;;;;;;;;;9.20;98.30;;;;;;5077886;28;19920;-86
2022/03/08 12:30:38;;;;;;;;;;;9.30;95.80;;;;;;5078114;28;19920;-86
2022/03/08 12:33:03;;;;;;;;;;;9.30;96.70;;;;;;5077857;28;19928;-85
2022/03/08 12:35:29;;;;;;;;;;;9.40;97.30;;;;;;5078164;28;19943;-85
2022/03/08 12:37:59;;;;;;;;;;;9.50;97.60;;;;;;5095031;28;19953;-85
2022/03/08 12:40:24;;;;;;;;;;;9.40;95.40;;;;;;5078088;28;20292;-87
2022/03/08 12:43:10;;;;;;;;;;;9.40;96.40;;;;;;5079158;28;19919;-86
2022/03/08 12:45:37;;;;;;;;;;;9.40;96.50;;;;;;5098576;28;19931;-84
2022/03/08 12:48:03;;;;;;;;;;;9.90;95.80;;;;;;5081370;28;19920;-85
2022/03/08 12:50:30;;;;;;;;;;;9.40;93.50;;;;;;5081531;28;20274;-83
2022/03/08 12:52:57;;;;;;;;;;;9.50;97.00;;;;;;5081760;28;19973;-83
2022/03/08 12:55:27;;;;;;;;;;;9.50;94.90;;;;;;5081717;28;20338;-82
2022/03/08 12:57:56;;;;;;;;;;;9.50;94.60;;;;;;5098173;28;20459;-82
2022/03/08 13:00:40;;;;;;;;;;;9.70;96.40;;;;;;5081666;28;19969;-82
2022/03/08 13:03:07;;;;;;;;;;;9.70;95.30;;;;;;5115537;28;19920;-82
2022/03/08 13:05:38;;;;;;;;;;;9.70;93.30;;;;;;5132487;27;19941;-83
2022/03/08 13:08:04;;;;;;;;;;;9.80;95.10;;;;;;5080795;28;19920;-83
2022/03/08 13:10:30;;;;;;;;;;;9.70;95.20;;;;;;5089563;28;19985;-83
2022/03/08 13:12:56;;;;;;;;;;;9.70;92.20;;;;;;5120344;27;19924;-82
2022/03/08 13:15:24;;;;;;;;;;;9.70;95.10;;;;;;5081340;28;19976;-86
2022/03/08 13:17:53;;;;;;;;;;;9.70;93.20;;;;;;5080847;28;20019;-84
2022/03/08 13:20:25;;;;;;;;;;;9.70;93.50;;;;;;5080966;28;19920;-84
2022/03/08 13:22:56;;;;;;;;;;;9.60;94.70;;;;;;5081150;28;19920;-83
2022/03/08 13:25:22;;;;;;;;;;;9.70;94.00;;;;;;5080971;28;19920;-84
2022/03/08 13:27:48;;;;;;;;;;;9.80;95.20;;;;;;5080596;28;19927;-85
2022/03/08 13:30:15;;;;;;;;;;;9.70;94.40;;;;;;5080959;28;19920;-85
2022/03/08 13:32:40;;;;;;;;;;;9.70;94.40;;;;;;5097716;28;19927;-84
2022/03/08 13:35:06;;;;;;;;;;;9.80;94.20;;;;;;5080944;28;19927;-84
2022/03/08 13:37:44;;;;;;;;;;;9.80;92.80;;;;;;5080278;28;19919;-85
2022/03/08 13:40:23;;;;;;;;;;;9.90;93.30;;;;;;5077301;28;19999;-84
2022/03/08 13:42:48;;;;;;;;;;;9.90;92.70;;;;;;5060952;28;19928;-84
2022/03/08 13:45:14;;;;;;;;;;;9.90;93.40;;;;;;5060467;28;19943;-85
2022/03/08 13:47:40;;;;;;;;;;;10.00;92.60;;;;;;5060052;28;19920;-86
2022/03/08 13:50:05;;;;;;;;;;;10.10;93.60;;;;;;5077060;28;19920;-86
2022/03/08 13:52:31;;;;;;;;;;;10.10;92.40;;;;;;5060465;28;19968;-84
2022/03/08 13:54:57;;;;;;;;;;;10.10;93.40;;;;;;5060221;28;19967;-85
2022/03/08 13:57:22;;;;;;;;;;;10.10;91.70;;;;;;5060232;28;19920;-83
2022/03/08 13:59:48;;;;;;;;;;;10.10;91.30;;;;;;5065734;28;19973;-82
2022/03/08 14:02:14;;;;;;;;;;;10.10;89.20;;;;;;5097149;28;19920;-82
2022/03/08 14:04:40;;;;;;;;;;;10.10;91.10;;;;;;5097077;28;20291;-84
2022/03/08 14:07:05;;;;;;;;;;;10.20;89.20;;;;;;5079851;28;19919;-82
2022/03/08 14:09:31;;;;;;;;;;;10.20;89.10;;;;;;5096540;28;19966;-83
2022/03/08 14:11:58;;;;;;;;;;;10.20;89.90;;;;;;5080004;28;19935;-82
2022/03/08 14:14:40;;;;;;;;;;;10.30;89.20;;;;;;5080061;28;19920;-83
2022/03/08 14:17:10;;;;;;;;;;;10.30;90.50;;;;;;5095311;28;19920;-83
2022/03/08 14:19:44;;;;;;;;;;;10.30;88.80;;;;;;5076669;28;19970;-83
2022/03/08 14:22:10;;;;;;;;;;;10.30;89.30;;;;;;5097914;28;19919;-83
2022/03/08 14:24:35;;;;;;;;;;;10.30;90.40;;;;;;5103397;27;19926;-83
2022/03/08 14:27:06;;;;;;;;;;;10.30;90.80;;;;;;5084766;27;19926;-83